VOZ63 YSSY-YMML
Flight info
| Callsign | VOZ63 |
|---|---|
| Flight time | 1h 16m |
| Altitude | 32000 |
| Route | WOL H65 LEECE Q29 ML |
| Aircraft | B738/M-SDE2E3FGHIRWXY/LB1 |
Departure
| Time | 2026-05-04 10:31 |
|---|---|
| Airport | Sydney Kingsford Smith International Airport (YSSY) |
Arrival
| Time | 2026-05-04 11:47 |
|---|---|
| Airport | Melbourne Airport (YMML) |
| Time | Latitude | Longitude | Altitude | Speed | Heading |
|---|---|---|---|---|---|
| 2026-05-04 09:57 | -33.93576 | 151.17902 | 29 ft | 0 kts | 100° |
| 2026-05-04 10:16 | -33.93574 | 151.17890 | 29 ft | 1 kts | 100° |
| 2026-05-04 10:17 | -33.93572 | 151.17879 | 29 ft | 1 kts | 100° |
| 2026-05-04 10:17 | -33.93571 | 151.17867 | 29 ft | 1 kts | 100° |
| 2026-05-04 10:19 | -33.93551 | 151.17835 | 29 ft | 0 kts | 189° |
| 2026-05-04 10:20 | -33.93554 | 151.17835 | 29 ft | 3 kts | 189° |
| 2026-05-04 10:21 | -33.93613 | 151.17820 | 29 ft | 11 kts | 193° |
| 2026-05-04 10:21 | -33.93684 | 151.17800 | 29 ft | 10 kts | 194° |
| 2026-05-04 10:21 | -33.93762 | 151.17776 | 28 ft | 13 kts | 194° |
| 2026-05-04 10:21 | -33.93777 | 151.17772 | 29 ft | 0 kts | 195° |
| 2026-05-04 10:22 | -33.93976 | 151.17799 | 28 ft | 30 kts | 167° |
| 2026-05-04 10:22 | -33.94183 | 151.17854 | 29 ft | 30 kts | 167° |
| 2026-05-04 10:22 | -33.94389 | 151.17905 | 29 ft | 30 kts | 168° |
| 2026-05-04 10:23 | -33.94587 | 151.17900 | 29 ft | 28 kts | 170° |
| 2026-05-04 10:23 | -33.94776 | 151.17946 | 29 ft | 27 kts | 168° |
| 2026-05-04 10:25 | -33.95046 | 151.18393 | 30 ft | 0 kts | 79° |
| 2026-05-04 10:25 | -33.95064 | 151.18498 | 30 ft | 27 kts | 132° |
| 2026-05-04 10:26 | -33.95258 | 151.18687 | 29 ft | 41 kts | 148° |
| 2026-05-04 10:26 | -33.95541 | 151.18778 | 29 ft | 44 kts | 167° |
| 2026-05-04 10:26 | -33.95834 | 151.18860 | 29 ft | 42 kts | 167° |
| 2026-05-04 10:26 | -33.96111 | 151.18926 | 29 ft | 39 kts | 167° |
| 2026-05-04 10:27 | -33.96371 | 151.18993 | 29 ft | 37 kts | 168° |
| 2026-05-04 10:27 | -33.96617 | 151.19058 | 29 ft | 35 kts | 168° |
| 2026-05-04 10:27 | -33.96850 | 151.19074 | 29 ft | 33 kts | 168° |
| 2026-05-04 10:27 | -33.97055 | 151.19126 | 29 ft | 22 kts | 169° |
| 2026-05-04 10:28 | -33.97116 | 151.19161 | 29 ft | 6 kts | 122° |
| 2026-05-04 10:28 | -33.97118 | 151.19171 | 29 ft | 0 kts | 109° |
| 2026-05-04 10:29 | -33.97119 | 151.19174 | 29 ft | 4 kts | 109° |
| 2026-05-04 10:29 | -33.97113 | 151.19263 | 28 ft | 15 kts | 81° |
| 2026-05-04 10:29 | -33.97060 | 151.19368 | 24 ft | 13 kts | 7° |
| 2026-05-04 10:29 | -33.97037 | 151.19365 | 27 ft | 0 kts | 348° |
| 2026-05-04 10:30 | -33.96885 | 151.19326 | 24 ft | 54 kts | 348° |
| 2026-05-04 10:30 | -33.96311 | 151.19175 | 27 ft | 113 kts | 348° |
| 2026-05-04 10:31 | -33.95377 | 151.18937 | 120 ft | 155 kts | 349° |
| 2026-05-04 10:31 | -33.94266 | 151.18625 | 675 ft | 168 kts | 351° |
| 2026-05-04 10:32 | -33.93784 | 151.26770 | 4312 ft | 225 kts | 81° |
| 2026-05-04 10:33 | -33.93722 | 151.28722 | 4721 ft | 242 kts | 82° |
| 2026-05-04 10:33 | -33.93663 | 151.30787 | 5213 ft | 255 kts | 82° |
| 2026-05-04 10:33 | -33.93606 | 151.32950 | 5848 ft | 262 kts | 82° |
| 2026-05-04 10:33 | -33.93547 | 151.35164 | 6489 ft | 268 kts | 82° |
| 2026-05-04 10:34 | -33.93483 | 151.37426 | 7088 ft | 273 kts | 83° |
| 2026-05-04 10:34 | -33.93415 | 151.39734 | 7635 ft | 280 kts | 83° |
| 2026-05-04 10:34 | -33.93345 | 151.42077 | 7526 ft | 275 kts | 83° |
| 2026-05-04 10:34 | -33.93280 | 151.44381 | 7095 ft | 273 kts | 83° |
| 2026-05-04 10:35 | -33.93213 | 151.46661 | 6630 ft | 271 kts | 83° |
| 2026-05-04 10:35 | -33.93177 | 151.48932 | 6148 ft | 272 kts | 88° |
| 2026-05-04 10:35 | -33.93490 | 151.51156 | 5690 ft | 274 kts | 103° |
| 2026-05-04 10:35 | -33.94255 | 151.53240 | 5450 ft | 269 kts | 118° |
| 2026-05-04 10:36 | -33.95423 | 151.55035 | 5653 ft | 277 kts | 134° |
| 2026-05-04 10:36 | -33.96948 | 151.56469 | 6326 ft | 281 kts | 150° |
| 2026-05-04 10:36 | -33.98729 | 151.57436 | 6975 ft | 282 kts | 168° |
| 2026-05-04 10:36 | -34.00661 | 151.57547 | 7635 ft | 278 kts | 195° |
| 2026-05-04 10:37 | -34.02404 | 151.56656 | 8401 ft | 267 kts | 225° |
| 2026-05-04 10:37 | -34.03752 | 151.55080 | 9035 ft | 278 kts | 234° |
| 2026-05-04 10:37 | -34.05013 | 151.53285 | 9693 ft | 287 kts | 237° |
| 2026-05-04 10:37 | -34.06280 | 151.51353 | 10466 ft | 293 kts | 238° |
| 2026-05-04 10:39 | -34.14405 | 151.39553 | 14989 ft | 316 kts | 236° |
| 2026-05-04 10:39 | -34.15820 | 151.37497 | 15708 ft | 319 kts | 236° |
| 2026-05-04 10:39 | -34.17247 | 151.35427 | 16444 ft | 322 kts | 236° |
| 2026-05-04 10:40 | -34.18686 | 151.33339 | 17187 ft | 325 kts | 236° |
| 2026-05-04 10:40 | -34.20141 | 151.31230 | 17905 ft | 329 kts | 236° |
| 2026-05-04 10:40 | -34.21619 | 151.29078 | 18030 ft | 342 kts | 236° |
| 2026-05-04 10:40 | -34.23129 | 151.26888 | 18033 ft | 335 kts | 236° |
| 2026-05-04 10:41 | -34.24610 | 151.24750 | 18033 ft | 327 kts | 236° |
| 2026-05-04 10:41 | -34.26065 | 151.22639 | 18041 ft | 328 kts | 236° |
| 2026-05-04 10:41 | -34.27530 | 151.20497 | 18526 ft | 330 kts | 237° |
| 2026-05-04 10:41 | -34.28999 | 151.18350 | 19153 ft | 332 kts | 237° |
| 2026-05-04 10:42 | -34.30478 | 151.16192 | 19826 ft | 335 kts | 237° |
| 2026-05-04 10:42 | -34.31992 | 151.13979 | 20017 ft | 347 kts | 237° |
| 2026-05-04 10:42 | -34.33525 | 151.11745 | 20039 ft | 342 kts | 237° |
| 2026-05-04 10:42 | -34.35078 | 151.09480 | 20098 ft | 357 kts | 237° |
| 2026-05-04 10:43 | -34.36696 | 151.07106 | 20311 ft | 373 kts | 237° |
| 2026-05-04 10:44 | -34.49760 | 150.87983 | 21906 ft | 450 kts | 237° |
| 2026-05-04 10:45 | -34.51754 | 150.85053 | 22347 ft | 452 kts | 237° |
| 2026-05-04 10:45 | -34.53755 | 150.82105 | 22764 ft | 453 kts | 237° |
| 2026-05-04 10:45 | -34.55760 | 150.79147 | 23162 ft | 455 kts | 237° |
| 2026-05-04 10:45 | -34.57718 | 150.76128 | 23546 ft | 454 kts | 240° |
| 2026-05-04 10:46 | -34.59574 | 150.73022 | 23874 ft | 455 kts | 242° |
| 2026-05-04 10:46 | -34.61387 | 150.69865 | 24174 ft | 457 kts | 242° |
| 2026-05-04 10:46 | -34.63223 | 150.66709 | 24478 ft | 460 kts | 241° |
| 2026-05-04 10:46 | -34.65119 | 150.63559 | 24787 ft | 462 kts | 240° |
| 2026-05-04 10:47 | -34.67046 | 150.60418 | 25102 ft | 464 kts | 240° |
| 2026-05-04 10:47 | -34.68972 | 150.57264 | 25408 ft | 465 kts | 240° |
| 2026-05-04 10:47 | -34.70891 | 150.54077 | 25706 ft | 467 kts | 241° |
| 2026-05-04 10:47 | -34.72800 | 150.50869 | 26050 ft | 467 kts | 241° |
| 2026-05-04 10:49 | -34.85947 | 150.28867 | 29132 ft | 453 kts | 242° |
| 2026-05-04 10:49 | -34.87796 | 150.25760 | 29578 ft | 452 kts | 242° |
| 2026-05-04 10:50 | -34.89640 | 150.22664 | 29990 ft | 451 kts | 242° |
| 2026-05-04 10:51 | -35.02349 | 150.01228 | 32096 ft | 444 kts | 243° |
| 2026-05-04 10:52 | -35.04157 | 149.98172 | 32094 ft | 442 kts | 243° |
| 2026-05-04 10:52 | -35.07737 | 149.92123 | 32094 ft | 437 kts | 243° |
| 2026-05-04 10:54 | -35.21871 | 149.68063 | 32101 ft | 436 kts | 243° |
| 2026-05-04 10:56 | -35.35949 | 149.43945 | 32121 ft | 435 kts | 244° |
| 2026-05-04 10:57 | -35.39461 | 149.37902 | 32111 ft | 435 kts | 244° |
| 2026-05-04 10:57 | -35.42975 | 149.31847 | 32131 ft | 436 kts | 244° |
| 2026-05-04 10:58 | -35.45900 | 149.26795 | 32129 ft | 437 kts | 244° |
| 2026-05-04 10:58 | -35.49426 | 149.20701 | 32108 ft | 437 kts | 244° |
| 2026-05-04 10:59 | -35.52935 | 149.14624 | 32121 ft | 436 kts | 244° |
| 2026-05-04 10:59 | -35.56447 | 149.08529 | 32120 ft | 437 kts | 244° |
| 2026-05-04 11:00 | -35.59954 | 149.02433 | 32114 ft | 437 kts | 244° |
| 2026-05-04 11:02 | -35.73928 | 148.78034 | 32119 ft | 438 kts | 244° |
| 2026-05-04 11:05 | -36.00035 | 148.31919 | 32109 ft | 437 kts | 244° |
| 2026-05-04 11:06 | -36.03505 | 148.25721 | 32108 ft | 439 kts | 244° |
| 2026-05-04 11:06 | -36.06967 | 148.19534 | 32172 ft | 441 kts | 244° |
| 2026-05-04 11:10 | -36.39529 | 147.87395 | 32112 ft | 508 kts | 192° |
| 2026-05-04 11:12 | -36.67481 | 147.83971 | 32091 ft | 503 kts | 193° |
| 2026-05-04 11:12 | -36.74461 | 147.83063 | 32086 ft | 504 kts | 193° |
| 2026-05-04 11:13 | -36.81430 | 147.82133 | 32045 ft | 503 kts | 193° |
| 2026-05-04 11:13 | -36.88394 | 147.81197 | 32049 ft | 502 kts | 193° |
| 2026-05-04 11:14 | -36.95366 | 147.80267 | 32053 ft | 506 kts | 193° |
| 2026-05-04 11:16 | -37.08211 | 147.60035 | 31647 ft | 388 kts | 277° |
| 2026-05-04 11:16 | -37.08190 | 147.56621 | 31464 ft | 397 kts | 277° |
| 2026-05-04 11:16 | -37.08184 | 147.53123 | 31277 ft | 404 kts | 276° |
| 2026-05-04 11:17 | -37.08194 | 147.49572 | 31090 ft | 412 kts | 276° |
| 2026-05-04 11:17 | -37.08209 | 147.45971 | 31031 ft | 416 kts | 276° |
| 2026-05-04 11:19 | -37.08203 | 147.16682 | 31026 ft | 420 kts | 276° |
| 2026-05-04 11:19 | -37.08186 | 147.09367 | 31077 ft | 420 kts | 276° |
| 2026-05-04 11:20 | -37.08169 | 147.02134 | 31084 ft | 415 kts | 276° |
| 2026-05-04 11:20 | -37.08145 | 146.94905 | 31053 ft | 415 kts | 276° |
| 2026-05-04 11:22 | -37.08009 | 146.66017 | 31063 ft | 413 kts | 276° |
| 2026-05-04 11:23 | -37.07964 | 146.58861 | 31031 ft | 412 kts | 277° |
| 2026-05-04 11:25 | -37.07848 | 146.33687 | 31065 ft | 421 kts | 271° |
| 2026-05-04 11:25 | -37.08541 | 146.30071 | 31101 ft | 436 kts | 256° |
| 2026-05-04 11:25 | -37.10096 | 146.26722 | 31080 ft | 456 kts | 239° |
| 2026-05-04 11:26 | -37.15725 | 146.22453 | 31097 ft | 506 kts | 200° |
| 2026-05-04 11:27 | -37.32032 | 146.07034 | 27175 ft | 389 kts | 255° |
| 2026-05-04 11:28 | -37.33004 | 146.03947 | 26892 ft | 372 kts | 255° |
| 2026-05-04 11:28 | -37.33901 | 146.00977 | 26632 ft | 355 kts | 255° |
| 2026-05-04 11:28 | -37.34745 | 145.98122 | 26205 ft | 345 kts | 255° |
| 2026-05-04 11:28 | -37.35577 | 145.95312 | 25646 ft | 341 kts | 255° |
| 2026-05-04 11:29 | -37.36410 | 145.92541 | 25080 ft | 337 kts | 254° |
| 2026-05-04 11:29 | -37.37247 | 145.89781 | 24707 ft | 337 kts | 254° |
| 2026-05-04 11:29 | -37.38083 | 145.87029 | 24422 ft | 335 kts | 254° |
| 2026-05-04 11:29 | -37.38906 | 145.84314 | 23947 ft | 331 kts | 254° |
| 2026-05-04 11:31 | -37.44406 | 145.65994 | 19734 ft | 310 kts | 252° |
| 2026-05-04 11:33 | -37.52726 | 145.50632 | 15488 ft | 294 kts | 237° |
| 2026-05-04 11:33 | -37.53912 | 145.48586 | 14900 ft | 290 kts | 237° |
| 2026-05-04 11:33 | -37.55097 | 145.46541 | 14314 ft | 288 kts | 237° |
| 2026-05-04 11:34 | -37.56276 | 145.44509 | 13729 ft | 285 kts | 238° |
| 2026-05-04 11:34 | -37.57440 | 145.42502 | 13231 ft | 278 kts | 238° |
| 2026-05-04 11:34 | -37.58560 | 145.40572 | 13024 ft | 265 kts | 238° |
| 2026-05-04 11:34 | -37.59640 | 145.38706 | 13026 ft | 268 kts | 238° |
| 2026-05-04 11:35 | -37.60744 | 145.36785 | 13009 ft | 268 kts | 239° |
| 2026-05-04 11:35 | -37.61848 | 145.34870 | 12714 ft | 274 kts | 238° |
| 2026-05-04 11:35 | -37.62966 | 145.32935 | 12386 ft | 271 kts | 238° |
| 2026-05-04 11:35 | -37.64068 | 145.31034 | 12063 ft | 267 kts | 238° |
| 2026-05-04 11:36 | -37.65156 | 145.29150 | 11636 ft | 267 kts | 238° |
| 2026-05-04 11:36 | -37.66244 | 145.27261 | 11124 ft | 263 kts | 238° |
| 2026-05-04 11:36 | -37.67313 | 145.25404 | 10646 ft | 259 kts | 238° |
| 2026-05-04 11:36 | -37.68355 | 145.23595 | 10182 ft | 255 kts | 238° |
| 2026-05-04 11:37 | -37.69384 | 145.21811 | 9860 ft | 245 kts | 238° |
| 2026-05-04 11:37 | -37.70362 | 145.20119 | 9680 ft | 231 kts | 239° |
| 2026-05-04 11:37 | -37.71279 | 145.18531 | 9544 ft | 217 kts | 239° |
| 2026-05-04 11:37 | -37.72144 | 145.17025 | 9266 ft | 209 kts | 239° |
| 2026-05-04 11:38 | -37.72989 | 145.15545 | 8926 ft | 206 kts | 239° |
| 2026-05-04 11:38 | -37.73825 | 145.14084 | 8555 ft | 205 kts | 239° |
| 2026-05-04 11:38 | -37.74661 | 145.12626 | 8171 ft | 204 kts | 239° |
| 2026-05-04 11:38 | -37.75488 | 145.11183 | 7812 ft | 202 kts | 239° |
| 2026-05-04 11:39 | -37.76313 | 145.09747 | 7442 ft | 201 kts | 239° |
| 2026-05-04 11:39 | -37.77131 | 145.08320 | 7078 ft | 200 kts | 239° |
| 2026-05-04 11:40 | -37.81431 | 145.00390 | 5291 ft | 167 kts | 256° |
| 2026-05-04 11:41 | -37.81700 | 144.99007 | 4941 ft | 159 kts | 259° |
| 2026-05-04 11:41 | -37.81935 | 144.97654 | 4640 ft | 155 kts | 259° |
| 2026-05-04 11:41 | -37.82166 | 144.96325 | 4287 ft | 154 kts | 260° |
| 2026-05-04 11:41 | -37.82396 | 144.95003 | 3943 ft | 153 kts | 261° |
| 2026-05-04 11:42 | -37.82611 | 144.93691 | 3611 ft | 151 kts | 263° |
| 2026-05-04 11:42 | -37.82773 | 144.92383 | 3269 ft | 150 kts | 264° |
| 2026-05-04 11:42 | -37.82926 | 144.91085 | 3026 ft | 147 kts | 265° |
| 2026-05-04 11:42 | -37.83077 | 144.89808 | 2878 ft | 150 kts | 264° |
| 2026-05-04 11:43 | -37.83232 | 144.88537 | 2612 ft | 143 kts | 264° |
| 2026-05-04 11:43 | -37.83125 | 144.87310 | 2524 ft | 146 kts | 296° |
| 2026-05-04 11:43 | -37.82255 | 144.86579 | 2532 ft | 162 kts | 334° |
| 2026-05-04 11:43 | -37.81131 | 144.86323 | 2520 ft | 161 kts | 342° |
| 2026-05-04 11:44 | -37.80042 | 144.86178 | 2528 ft | 159 kts | 342° |
| 2026-05-04 11:44 | -37.78963 | 144.86019 | 2523 ft | 147 kts | 342° |
| 2026-05-04 11:44 | -37.77954 | 144.85848 | 2522 ft | 151 kts | 341° |
| 2026-05-04 11:44 | -37.76947 | 144.85667 | 2380 ft | 143 kts | 341° |
| 2026-05-04 11:45 | -37.75948 | 144.85480 | 2062 ft | 150 kts | 342° |
| 2026-05-04 11:45 | -37.74942 | 144.85312 | 1685 ft | 140 kts | 341° |
| 2026-05-04 11:45 | -37.73973 | 144.85136 | 1287 ft | 139 kts | 343° |
| 2026-05-04 11:45 | -37.73044 | 144.84881 | 1104 ft | 137 kts | 347° |
| 2026-05-04 11:46 | -37.72068 | 144.84689 | 1007 ft | 143 kts | 352° |
| 2026-05-04 11:46 | -37.71075 | 144.84535 | 843 ft | 144 kts | 353° |
| 2026-05-04 11:46 | -37.70103 | 144.84371 | 648 ft | 139 kts | 351° |
| 2026-05-04 11:46 | -37.69164 | 144.84197 | 484 ft | 134 kts | 351° |
| 2026-05-04 11:47 | -37.68213 | 144.84018 | 365 ft | 141 kts | 351° |
| 2026-05-04 11:47 | -37.67365 | 144.83861 | 371 ft | 92 kts | 353° |
| 2026-05-04 11:47 | -37.66988 | 144.83841 | 385 ft | 31 kts | 14° |
| 2026-05-04 11:47 | -37.66839 | 144.83911 | 391 ft | 5 kts | 21° |
| 2026-05-04 11:48 | -37.66838 | 144.83911 | 391 ft | 0 kts | 21° |
| 2026-05-04 11:48 | -37.66819 | 144.83921 | 391 ft | 4 kts | 21° |
| 2026-05-04 11:48 | -37.66803 | 144.83929 | 392 ft | 1 kts | 21° |
| 2026-05-04 11:48 | -37.66802 | 144.83929 | 392 ft | 0 kts | 21° |
| 2026-05-04 11:49 | -37.66781 | 144.83940 | 392 ft | 6 kts | 22° |
| 2026-05-04 11:49 | -37.66755 | 144.83960 | 393 ft | 5 kts | 36° |
| 2026-05-04 11:50 | -37.66723 | 144.84025 | 394 ft | 10 kts | 77° |
| 2026-05-04 11:50 | -37.66727 | 144.84119 | 394 ft | 13 kts | 115° |
| 2026-05-04 11:50 | -37.66814 | 144.84197 | 390 ft | 18 kts | 167° |
| 2026-05-04 11:50 | -37.66944 | 144.84220 | 386 ft | 20 kts | 172° |
| 2026-05-04 11:51 | -37.67082 | 144.84248 | 383 ft | 20 kts | 172° |
| 2026-05-04 11:51 | -37.67201 | 144.84318 | 382 ft | 19 kts | 103° |
| 2026-05-04 11:51 | -37.67205 | 144.84474 | 384 ft | 17 kts | 102° |
| 2026-05-04 11:51 | -37.67202 | 144.84609 | 386 ft | 14 kts | 81° |
| 2026-05-04 11:52 | -37.67141 | 144.84638 | 388 ft | 9 kts | 351° |
| 2026-05-04 11:52 | -37.67122 | 144.84634 | 388 ft | 0 kts | 351° |